sensor_id;sensor_type;location;lat;lon;timestamp;temperature;humidity
16066;DHT22;8137;48.952;8.970;2022-09-09T00:02:23;13.90;99.90
16066;DHT22;8137;48.952;8.970;2022-09-09T00:07:47;14.00;99.90
16066;DHT22;8137;48.952;8.970;2022-09-09T00:10:33;14.10;99.90
16066;DHT22;8137;48.952;8.970;2022-09-09T00:15:59;14.20;99.90
16066;DHT22;8137;48.952;8.970;2022-09-09T00:21:15;14.20;99.90
16066;DHT22;8137;48.952;8.970;2022-09-09T00:23:51;14.30;99.90
16066;DHT22;8137;48.952;8.970;2022-09-09T00:26:30;14.30;99.90
16066;DHT22;8137;48.952;8.970;2022-09-09T00:29:20;14.30;99.90
16066;DHT22;8137;48.952;8.970;2022-09-09T00:31:48;14.30;99.90
16066;DHT22;8137;48.952;8.970;2022-09-09T00:34:23;14.30;99.90
16066;DHT22;8137;48.952;8.970;2022-09-09T00:36:51;14.40;99.90
16066;DHT22;8137;48.952;8.970;2022-09-09T00:39:41;14.40;99.90
16066;DHT22;8137;48.952;8.970;2022-09-09T00:44:52;14.30;99.90
16066;DHT22;8137;48.952;8.970;2022-09-09T00:47:38;14.30;99.90
16066;DHT22;8137;48.952;8.970;2022-09-09T00:50:33;14.30;99.90
16066;DHT22;8137;48.952;8.970;2022-09-09T00:53:04;14.30;99.90
16066;DHT22;8137;48.952;8.970;2022-09-09T00:58:18;14.40;99.90
16066;DHT22;8137;48.952;8.970;2022-09-09T01:00:44;14.40;99.90
16066;DHT22;8137;48.952;8.970;2022-09-09T01:06:25;14.40;99.90
16066;DHT22;8137;48.952;8.970;2022-09-09T01:20:05;14.40;99.90
16066;DHT22;8137;48.952;8.970;2022-09-09T01:25:26;14.40;99.90
16066;DHT22;8137;48.952;8.970;2022-09-09T01:27:59;14.40;99.90
16066;DHT22;8137;48.952;8.970;2022-09-09T01:30:26;14.40;99.90
16066;DHT22;8137;48.952;8.970;2022-09-09T01:32:56;14.40;99.90
16066;DHT22;8137;48.952;8.970;2022-09-09T01:35:52;14.30;99.90
16066;DHT22;8137;48.952;8.970;2022-09-09T01:38:20;14.30;99.90
16066;DHT22;8137;48.952;8.970;2022-09-09T01:40:46;14.40;99.90
16066;DHT22;8137;48.952;8.970;2022-09-09T01:43:13;14.30;99.90
16066;DHT22;8137;48.952;8.970;2022-09-09T01:45:40;14.30;99.90
16066;DHT22;8137;48.952;8.970;2022-09-09T01:48:08;14.30;99.90
16066;DHT22;8137;48.952;8.970;2022-09-09T01:50:33;14.30;99.90
16066;DHT22;8137;48.952;8.970;2022-09-09T01:53:01;14.30;99.90
16066;DHT22;8137;48.952;8.970;2022-09-09T01:55:41;14.30;99.90
16066;DHT22;8137;48.952;8.970;2022-09-09T01:58:25;14.30;99.90
16066;DHT22;8137;48.952;8.970;2022-09-09T02:01:12;14.30;99.90
16066;DHT22;8137;48.952;8.970;2022-09-09T02:03:46;14.40;99.90
16066;DHT22;8137;48.952;8.970;2022-09-09T02:06:34;14.40;99.90
16066;DHT22;8137;48.952;8.970;2022-09-09T02:09:04;14.50;99.90
16066;DHT22;8137;48.952;8.970;2022-09-09T02:11:30;14.60;99.90
16066;DHT22;8137;48.952;8.970;2022-09-09T02:14:10;14.60;99.90
16066;DHT22;8137;48.952;8.970;2022-09-09T02:17:25;14.50;99.90
16066;DHT22;8137;48.952;8.970;2022-09-09T02:19:38;14.50;99.90
16066;DHT22;8137;48.952;8.970;2022-09-09T02:22:04;14.40;99.90
16066;DHT22;8137;48.952;8.970;2022-09-09T02:24:34;14.30;99.90
16066;DHT22;8137;48.952;8.970;2022-09-09T02:27:02;14.30;99.90
16066;DHT22;8137;48.952;8.970;2022-09-09T02:29:33;14.30;99.90
16066;DHT22;8137;48.952;8.970;2022-09-09T02:32:03;14.30;99.90
16066;DHT22;8137;48.952;8.970;2022-09-09T02:34:31;14.40;99.90
16066;DHT22;8137;48.952;8.970;2022-09-09T02:37:00;14.40;99.90
16066;DHT22;8137;48.952;8.970;2022-09-09T02:39:28;14.30;99.90
16066;DHT22;8137;48.952;8.970;2022-09-09T02:41:54;14.30;99.90
16066;DHT22;8137;48.952;8.970;2022-09-09T02:44:19;14.40;99.90
16066;DHT22;8137;48.952;8.970;2022-09-09T02:52:20;14.30;99.90
16066;DHT22;8137;48.952;8.970;2022-09-09T02:54:49;14.30;99.90
16066;DHT22;8137;48.952;8.970;2022-09-09T02:57:24;14.30;99.90
16066;DHT22;8137;48.952;8.970;2022-09-09T02:59:50;14.30;99.90
16066;DHT22;8137;48.952;8.970;2022-09-09T03:02:18;14.30;99.90
16066;DHT22;8137;48.952;8.970;2022-09-09T03:04:44;14.30;99.90
16066;DHT22;8137;48.952;8.970;2022-09-09T03:07:10;14.30;99.90
16066;DHT22;8137;48.952;8.970;2022-09-09T03:09:36;14.30;99.90
16066;DHT22;8137;48.952;8.970;2022-09-09T03:12:02;14.20;99.90
16066;DHT22;8137;48.952;8.970;2022-09-09T03:14:29;14.20;99.90
16066;DHT22;8137;48.952;8.970;2022-09-09T03:16:55;14.10;99.90
16066;DHT22;8137;48.952;8.970;2022-09-09T03:19:23;14.10;99.90
16066;DHT22;8137;48.952;8.970;2022-09-09T03:21:48;14.10;99.90
16066;DHT22;8137;48.952;8.970;2022-09-09T03:24:15;14.10;99.90
16066;DHT22;8137;48.952;8.970;2022-09-09T03:26:41;14.00;99.90
16066;DHT22;8137;48.952;8.970;2022-09-09T03:29:10;14.00;99.90
16066;DHT22;8137;48.952;8.970;2022-09-09T03:31:38;14.00;99.90
16066;DHT22;8137;48.952;8.970;2022-09-09T03:34:03;14.00;99.90
16066;DHT22;8137;48.952;8.970;2022-09-09T03:36:29;13.90;99.90
16066;DHT22;8137;48.952;8.970;2022-09-09T03:38:55;13.90;99.90
16066;DHT22;8137;48.952;8.970;2022-09-09T03:41:22;13.80;99.90
16066;DHT22;8137;48.952;8.970;2022-09-09T03:43:50;13.80;99.90
16066;DHT22;8137;48.952;8.970;2022-09-09T03:46:17;13.80;99.90
16066;DHT22;8137;48.952;8.970;2022-09-09T03:48:42;13.80;99.90
16066;DHT22;8137;48.952;8.970;2022-09-09T03:51:08;13.80;99.90
16066;DHT22;8137;48.952;8.970;2022-09-09T03:53:34;13.70;99.90
16066;DHT22;8137;48.952;8.970;2022-09-09T03:55:59;13.70;99.90
16066;DHT22;8137;48.952;8.970;2022-09-09T03:58:26;13.70;99.90
16066;DHT22;8137;48.952;8.970;2022-09-09T04:00:57;13.60;99.90
16066;DHT22;8137;48.952;8.970;2022-09-09T04:03:24;13.60;99.90
16066;DHT22;8137;48.952;8.970;2022-09-09T04:05:54;13.60;99.90
16066;DHT22;8137;48.952;8.970;2022-09-09T04:08:21;13.60;99.90
16066;DHT22;8137;48.952;8.970;2022-09-09T04:10:49;13.60;99.90
16066;DHT22;8137;48.952;8.970;2022-09-09T04:13:16;13.60;99.90
16066;DHT22;8137;48.952;8.970;2022-09-09T04:15:43;13.60;99.90
16066;DHT22;8137;48.952;8.970;2022-09-09T04:18:09;13.60;99.90
16066;DHT22;8137;48.952;8.970;2022-09-09T04:20:35;13.60;99.90
16066;DHT22;8137;48.952;8.970;2022-09-09T04:23:01;13.70;99.90
16066;DHT22;8137;48.952;8.970;2022-09-09T04:25:27;13.60;99.90
16066;DHT22;8137;48.952;8.970;2022-09-09T04:27:57;13.60;99.90
16066;DHT22;8137;48.952;8.970;2022-09-09T04:30:23;13.60;99.90
16066;DHT22;8137;48.952;8.970;2022-09-09T04:32:49;13.60;99.90
16066;DHT22;8137;48.952;8.970;2022-09-09T04:35:15;13.60;99.90
16066;DHT22;8137;48.952;8.970;2022-09-09T04:37:41;13.70;99.90
16066;DHT22;8137;48.952;8.970;2022-09-09T04:40:07;13.70;99.90
16066;DHT22;8137;48.952;8.970;2022-09-09T04:42:38;13.70;99.90
16066;DHT22;8137;48.952;8.970;2022-09-09T04:45:06;13.80;99.90
16066;DHT22;8137;48.952;8.970;2022-09-09T04:47:32;13.80;99.90
16066;DHT22;8137;48.952;8.970;2022-09-09T04:49:58;13.90;99.90
16066;DHT22;8137;48.952;8.970;2022-09-09T04:52:24;13.90;99.90
16066;DHT22;8137;48.952;8.970;2022-09-09T04:54:50;13.90;99.90
16066;DHT22;8137;48.952;8.970;2022-09-09T04:57:15;13.90;99.90
16066;DHT22;8137;48.952;8.970;2022-09-09T04:59:41;13.90;99.90
16066;DHT22;8137;48.952;8.970;2022-09-09T05:02:06;13.90;99.90
16066;DHT22;8137;48.952;8.970;2022-09-09T05:04:32;13.80;99.90
16066;DHT22;8137;48.952;8.970;2022-09-09T05:06:58;13.80;99.90
16066;DHT22;8137;48.952;8.970;2022-09-09T05:09:24;13.70;99.90
16066;DHT22;8137;48.952;8.970;2022-09-09T05:11:50;13.80;99.90
16066;DHT22;8137;48.952;8.970;2022-09-09T05:14:16;13.80;99.90
16066;DHT22;8137;48.952;8.970;2022-09-09T05:16:44;13.80;99.90
16066;DHT22;8137;48.952;8.970;2022-09-09T05:19:10;13.80;99.90
16066;DHT22;8137;48.952;8.970;2022-09-09T05:21:36;13.90;99.90
16066;DHT22;8137;48.952;8.970;2022-09-09T05:24:02;13.90;99.90
16066;DHT22;8137;48.952;8.970;2022-09-09T05:26:28;14.00;99.90
16066;DHT22;8137;48.952;8.970;2022-09-09T05:28:54;14.10;99.90
16066;DHT22;8137;48.952;8.970;2022-09-09T05:31:20;14.20;99.90
16066;DHT22;8137;48.952;8.970;2022-09-09T05:33:48;14.30;99.90
16066;DHT22;8137;48.952;8.970;2022-09-09T05:36:19;14.40;99.90
16066;DHT22;8137;48.952;8.970;2022-09-09T05:38:46;14.50;99.90
16066;DHT22;8137;48.952;8.970;2022-09-09T05:41:12;14.60;99.90
16066;DHT22;8137;48.952;8.970;2022-09-09T05:43:40;14.60;99.90
16066;DHT22;8137;48.952;8.970;2022-09-09T05:46:15;14.70;99.90
16066;DHT22;8137;48.952;8.970;2022-09-09T05:48:43;14.80;99.90
16066;DHT22;8137;48.952;8.970;2022-09-09T05:51:13;14.80;99.90
16066;DHT22;8137;48.952;8.970;2022-09-09T05:53:41;14.80;99.90
16066;DHT22;8137;48.952;8.970;2022-09-09T05:56:13;14.90;99.90
16066;DHT22;8137;48.952;8.970;2022-09-09T05:58:40;15.00;99.90
16066;DHT22;8137;48.952;8.970;2022-09-09T06:01:07;15.10;99.90
16066;DHT22;8137;48.952;8.970;2022-09-09T06:03:39;15.20;99.90
16066;DHT22;8137;48.952;8.970;2022-09-09T06:06:07;15.40;99.90
16066;DHT22;8137;48.952;8.970;2022-09-09T06:08:38;15.60;99.90
16066;DHT22;8137;48.952;8.970;2022-09-09T06:11:09;15.80;99.90
16066;DHT22;8137;48.952;8.970;2022-09-09T06:13:35;16.00;99.90
16066;DHT22;8137;48.952;8.970;2022-09-09T06:16:05;16.10;99.90
16066;DHT22;8137;48.952;8.970;2022-09-09T06:18:32;16.20;99.90
16066;DHT22;8137;48.952;8.970;2022-09-09T06:20:59;16.30;99.90
16066;DHT22;8137;48.952;8.970;2022-09-09T06:23:26;16.50;99.90
16066;DHT22;8137;48.952;8.970;2022-09-09T06:26:04;16.60;99.90
16066;DHT22;8137;48.952;8.970;2022-09-09T06:28:32;16.70;99.90
16066;DHT22;8137;48.952;8.970;2022-09-09T06:31:02;16.70;99.90
16066;DHT22;8137;48.952;8.970;2022-09-09T06:33:37;16.70;99.90
16066;DHT22;8137;48.952;8.970;2022-09-09T06:36:10;16.60;99.90
16066;DHT22;8137;48.952;8.970;2022-09-09T06:38:36;16.60;99.90
16066;DHT22;8137;48.952;8.970;2022-09-09T06:41:02;16.60;99.90
16066;DHT22;8137;48.952;8.970;2022-09-09T06:43:28;16.60;99.90
16066;DHT22;8137;48.952;8.970;2022-09-09T06:46:13;16.70;99.90
16066;DHT22;8137;48.952;8.970;2022-09-09T06:48:40;17.00;99.90
16066;DHT22;8137;48.952;8.970;2022-09-09T06:51:16;17.40;99.90
16066;DHT22;8137;48.952;8.970;2022-09-09T06:53:44;17.60;99.90
16066;DHT22;8137;48.952;8.970;2022-09-09T06:58:36;18.00;99.90
16066;DHT22;8137;48.952;8.970;2022-09-09T07:01:05;18.10;99.90
16066;DHT22;8137;48.952;8.970;2022-09-09T07:03:32;18.30;99.90
16066;DHT22;8137;48.952;8.970;2022-09-09T07:05:57;18.40;99.90
16066;DHT22;8137;48.952;8.970;2022-09-09T07:08:23;18.40;99.90
16066;DHT22;8137;48.952;8.970;2022-09-09T07:10:50;18.50;99.90
16066;DHT22;8137;48.952;8.970;2022-09-09T07:13:16;18.60;99.90
16066;DHT22;8137;48.952;8.970;2022-09-09T07:15:42;18.70;99.90
16066;DHT22;8137;48.952;8.970;2022-09-09T07:18:08;18.90;99.90
16066;DHT22;8137;48.952;8.970;2022-09-09T07:20:35;19.10;99.90
16066;DHT22;8137;48.952;8.970;2022-09-09T07:23:01;19.20;99.90
16066;DHT22;8137;48.952;8.970;2022-09-09T07:25:26;19.50;99.90
16066;DHT22;8137;48.952;8.970;2022-09-09T07:27:56;19.80;99.90
16066;DHT22;8137;48.952;8.970;2022-09-09T07:30:21;20.00;99.90
16066;DHT22;8137;48.952;8.970;2022-09-09T07:32:47;20.00;99.90
16066;DHT22;8137;48.952;8.970;2022-09-09T07:35:13;20.00;99.90
16066;DHT22;8137;48.952;8.970;2022-09-09T07:37:38;20.00;99.90
16066;DHT22;8137;48.952;8.970;2022-09-09T07:40:04;20.00;99.90
16066;DHT22;8137;48.952;8.970;2022-09-09T07:42:31;20.00;99.90
16066;DHT22;8137;48.952;8.970;2022-09-09T07:44:56;20.00;99.90
16066;DHT22;8137;48.952;8.970;2022-09-09T07:47:22;19.90;99.90
16066;DHT22;8137;48.952;8.970;2022-09-09T07:49:50;19.80;99.90
16066;DHT22;8137;48.952;8.970;2022-09-09T07:52:15;19.70;99.90
16066;DHT22;8137;48.952;8.970;2022-09-09T07:54:41;19.60;99.90
16066;DHT22;8137;48.952;8.970;2022-09-09T07:57:07;19.40;99.90
16066;DHT22;8137;48.952;8.970;2022-09-09T07:59:33;19.40;99.90
16066;DHT22;8137;48.952;8.970;2022-09-09T08:01:59;19.40;99.90
16066;DHT22;8137;48.952;8.970;2022-09-09T08:04:25;19.60;99.90
16066;DHT22;8137;48.952;8.970;2022-09-09T08:06:57;19.80;99.90
16066;DHT22;8137;48.952;8.970;2022-09-09T08:09:23;20.20;99.90
16066;DHT22;8137;48.952;8.970;2022-09-09T08:11:54;20.70;99.90
16066;DHT22;8137;48.952;8.970;2022-09-09T08:14:20;21.10;99.90
16066;DHT22;8137;48.952;8.970;2022-09-09T08:16:48;21.40;99.90
16066;DHT22;8137;48.952;8.970;2022-09-09T08:19:14;21.70;99.90
16066;DHT22;8137;48.952;8.970;2022-09-09T08:21:41;21.80;99.90
16066;DHT22;8137;48.952;8.970;2022-09-09T08:24:09;22.10;99.90
16066;DHT22;8137;48.952;8.970;2022-09-09T08:26:44;22.20;99.90
16066;DHT22;8137;48.952;8.970;2022-09-09T08:29:11;22.50;99.90
16066;DHT22;8137;48.952;8.970;2022-09-09T08:31:40;22.60;99.90
16066;DHT22;8137;48.952;8.970;2022-09-09T08:34:07;22.90;99.90
16066;DHT22;8137;48.952;8.970;2022-09-09T08:36:35;22.90;99.90
16066;DHT22;8137;48.952;8.970;2022-09-09T08:39:03;23.00;99.90
16066;DHT22;8137;48.952;8.970;2022-09-09T08:44:24;23.00;99.90
16066;DHT22;8137;48.952;8.970;2022-09-09T08:52:25;22.20;99.90
16066;DHT22;8137;48.952;8.970;2022-09-09T08:54:53;22.40;99.90
16066;DHT22;8137;48.952;8.970;2022-09-09T08:57:26;22.50;99.90
16066;DHT22;8137;48.952;8.970;2022-09-09T08:59:54;22.60;99.90
16066;DHT22;8137;48.952;8.970;2022-09-09T09:02:48;22.60;99.90
16066;DHT22;8137;48.952;8.970;2022-09-09T09:05:33;22.90;99.90
16066;DHT22;8137;48.952;8.970;2022-09-09T09:13:11;23.10;99.60
16066;DHT22;8137;48.952;8.970;2022-09-09T09:15:39;23.10;97.20
16066;DHT22;8137;48.952;8.970;2022-09-09T09:18:08;23.20;96.40
16066;DHT22;8137;48.952;8.970;2022-09-09T09:20:42;23.30;95.30
16066;DHT22;8137;48.952;8.970;2022-09-09T09:23:21;23.60;95.50
16066;DHT22;8137;48.952;8.970;2022-09-09T09:25:47;23.60;94.90
16066;DHT22;8137;48.952;8.970;2022-09-09T09:28:23;23.50;93.60
16066;DHT22;8137;48.952;8.970;2022-09-09T09:31:10;23.10;92.80
16066;DHT22;8137;48.952;8.970;2022-09-09T09:33:52;22.70;94.00
16066;DHT22;8137;48.952;8.970;2022-09-09T09:36:19;22.20;95.60
16066;DHT22;8137;48.952;8.970;2022-09-09T09:38:56;21.80;98.30
16066;DHT22;8137;48.952;8.970;2022-09-09T09:43:55;21.10;98.90
16066;DHT22;8137;48.952;8.970;2022-09-09T09:46:23;20.90;99.40
16066;DHT22;8137;48.952;8.970;2022-09-09T09:49:02;20.90;99.90
16066;DHT22;8137;48.952;8.970;2022-09-09T09:51:31;20.70;99.90
16066;DHT22;8137;48.952;8.970;2022-09-09T09:54:14;20.60;99.90
16066;DHT22;8137;48.952;8.970;2022-09-09T09:56:41;20.50;99.90
16066;DHT22;8137;48.952;8.970;2022-09-09T09:59:23;20.30;99.90
16066;DHT22;8137;48.952;8.970;2022-09-09T10:01:49;20.00;99.90
16066;DHT22;8137;48.952;8.970;2022-09-09T10:04:22;19.60;99.90
16066;DHT22;8137;48.952;8.970;2022-09-09T10:06:51;19.30;99.90
16066;DHT22;8137;48.952;8.970;2022-09-09T10:09:26;18.80;99.90
16066;DHT22;8137;48.952;8.970;2022-09-09T10:12:47;18.60;99.90
16066;DHT22;8137;48.952;8.970;2022-09-09T10:15:24;18.50;99.90
16066;DHT22;8137;48.952;8.970;2022-09-09T10:18:18;18.50;99.90
16066;DHT22;8137;48.952;8.970;2022-09-09T10:24:32;19.80;99.90
16066;DHT22;8137;48.952;8.970;2022-09-09T10:30:20;20.80;99.90
16066;DHT22;8137;48.952;8.970;2022-09-09T10:38:17;21.60;99.90
16066;DHT22;8137;48.952;8.970;2022-09-09T10:51:23;21.10;99.90
16066;DHT22;8137;48.952;8.970;2022-09-09T10:56:52;20.70;99.90
16066;DHT22;8137;48.952;8.970;2022-09-09T10:59:25;20.70;99.90
16066;DHT22;8137;48.952;8.970;2022-09-09T11:02:27;20.60;99.90
16066;DHT22;8137;48.952;8.970;2022-09-09T11:07:40;20.40;99.90
16066;DHT22;8137;48.952;8.970;2022-09-09T11:10:16;20.20;99.90
16066;DHT22;8137;48.952;8.970;2022-09-09T11:12:45;20.20;99.90
16066;DHT22;8137;48.952;8.970;2022-09-09T11:15:42;20.10;99.90
16066;DHT22;8137;48.952;8.970;2022-09-09T11:18:18;19.90;99.90
16066;DHT22;8137;48.952;8.970;2022-09-09T11:20:45;19.70;99.90
16066;DHT22;8137;48.952;8.970;2022-09-09T11:23:40;19.60;99.90
16066;DHT22;8137;48.952;8.970;2022-09-09T11:26:08;19.40;99.90
16066;DHT22;8137;48.952;8.970;2022-09-09T11:34:30;19.60;99.90
16066;DHT22;8137;48.952;8.970;2022-09-09T11:42:17;19.30;99.90
16066;DHT22;8137;48.952;8.970;2022-09-09T11:44:44;19.00;99.90
16066;DHT22;8137;48.952;8.970;2022-09-09T11:47:32;18.80;99.90
16066;DHT22;8137;48.952;8.970;2022-09-09T11:50:31;18.60;99.90
16066;DHT22;8137;48.952;8.970;2022-09-09T11:53:21;18.60;99.90
16066;DHT22;8137;48.952;8.970;2022-09-09T11:55:59;18.70;99.90
16066;DHT22;8137;48.952;8.970;2022-09-09T11:58:26;18.70;99.90
16066;DHT22;8137;48.952;8.970;2022-09-09T12:00:53;18.90;99.90
16066;DHT22;8137;48.952;8.970;2022-09-09T12:08:42;20.70;99.90
16066;DHT22;8137;48.952;8.970;2022-09-09T12:11:08;20.90;99.90
16066;DHT22;8137;48.952;8.970;2022-09-09T12:13:34;21.10;99.90
16066;DHT22;8137;48.952;8.970;2022-09-09T12:16:01;21.20;99.90
16066;DHT22;8137;48.952;8.970;2022-09-09T12:18:38;21.10;99.90
16066;DHT22;8137;48.952;8.970;2022-09-09T12:24:10;21.40;99.90
16066;DHT22;8137;48.952;8.970;2022-09-09T12:27:18;21.50;99.90
16066;DHT22;8137;48.952;8.970;2022-09-09T12:30:00;21.70;99.90
16066;DHT22;8137;48.952;8.970;2022-09-09T12:32:28;21.60;99.90
16066;DHT22;8137;48.952;8.970;2022-09-09T12:35:18;21.80;99.90
16066;DHT22;8137;48.952;8.970;2022-09-09T12:38:02;21.80;99.90
16066;DHT22;8137;48.952;8.970;2022-09-09T12:40:33;22.00;99.90
16066;DHT22;8137;48.952;8.970;2022-09-09T12:43:20;21.90;99.90
16066;DHT22;8137;48.952;8.970;2022-09-09T12:45:47;21.90;99.90
16066;DHT22;8137;48.952;8.970;2022-09-09T12:48:18;21.90;99.90
16066;DHT22;8137;48.952;8.970;2022-09-09T12:50:46;21.80;99.90
16066;DHT22;8137;48.952;8.970;2022-09-09T12:53:22;21.60;99.90
16066;DHT22;8137;48.952;8.970;2022-09-09T12:55:53;21.60;99.90
16066;DHT22;8137;48.952;8.970;2022-09-09T12:58:20;21.80;99.90
16066;DHT22;8137;48.952;8.970;2022-09-09T13:00:53;22.00;99.90
16066;DHT22;8137;48.952;8.970;2022-09-09T13:03:22;22.20;99.90
16066;DHT22;8137;48.952;8.970;2022-09-09T13:05:48;22.50;99.90
16066;DHT22;8137;48.952;8.970;2022-09-09T13:08:15;22.60;99.90
16066;DHT22;8137;48.952;8.970;2022-09-09T13:13:22;22.50;97.90
16066;DHT22;8137;48.952;8.970;2022-09-09T13:15:56;22.80;96.80
16066;DHT22;8137;48.952;8.970;2022-09-09T13:18:26;23.00;94.40
16066;DHT22;8137;48.952;8.970;2022-09-09T13:20:52;23.30;93.80
16066;DHT22;8137;48.952;8.970;2022-09-09T13:23:19;23.20;90.70
16066;DHT22;8137;48.952;8.970;2022-09-09T13:25:56;23.30;90.00
16066;DHT22;8137;48.952;8.970;2022-09-09T13:28:24;23.50;88.80
16066;DHT22;8137;48.952;8.970;2022-09-09T13:31:01;23.70;88.20
16066;DHT22;8137;48.952;8.970;2022-09-09T13:33:37;24.00;85.70
16066;DHT22;8137;48.952;8.970;2022-09-09T13:36:11;23.90;82.10
16066;DHT22;8137;48.952;8.970;2022-09-09T13:38:52;24.00;83.70
16066;DHT22;8137;48.952;8.970;2022-09-09T13:41:23;24.40;84.90
16066;DHT22;8137;48.952;8.970;2022-09-09T13:43:50;24.40;81.50
16066;DHT22;8137;48.952;8.970;2022-09-09T13:46:35;24.60;82.40
16066;DHT22;8137;48.952;8.970;2022-09-09T13:51:36;24.60;82.90
16066;DHT22;8137;48.952;8.970;2022-09-09T13:54:04;24.30;78.90
16066;DHT22;8137;48.952;8.970;2022-09-09T13:56:35;24.10;80.90
16066;DHT22;8137;48.952;8.970;2022-09-09T13:59:02;23.80;81.40
16066;DHT22;8137;48.952;8.970;2022-09-09T14:01:27;23.40;81.40
16066;DHT22;8137;48.952;8.970;2022-09-09T14:03:54;23.00;81.30
16066;DHT22;8137;48.952;8.970;2022-09-09T14:06:19;22.70;83.40
16066;DHT22;8137;48.952;8.970;2022-09-09T14:08:47;22.70;85.00
16066;DHT22;8137;48.952;8.970;2022-09-09T14:11:14;22.50;86.00
16066;DHT22;8137;48.952;8.970;2022-09-09T14:13:40;22.20;81.80
16066;DHT22;8137;48.952;8.970;2022-09-09T14:16:05;22.10;80.60
16066;DHT22;8137;48.952;8.970;2022-09-09T14:18:31;22.00;81.40
16066;DHT22;8137;48.952;8.970;2022-09-09T14:20:57;22.00;82.70
16066;DHT22;8137;48.952;8.970;2022-09-09T14:23:24;21.90;84.60
16066;DHT22;8137;48.952;8.970;2022-09-09T14:25:50;21.90;84.00
16066;DHT22;8137;48.952;8.970;2022-09-09T14:28:16;21.90;86.10
16066;DHT22;8137;48.952;8.970;2022-09-09T14:30:43;21.80;85.20
16066;DHT22;8137;48.952;8.970;2022-09-09T14:33:12;21.70;85.40
16066;DHT22;8137;48.952;8.970;2022-09-09T14:35:38;21.60;88.20
16066;DHT22;8137;48.952;8.970;2022-09-09T14:38:05;21.60;89.00
16066;DHT22;8137;48.952;8.970;2022-09-09T14:40:30;21.60;90.20
16066;DHT22;8137;48.952;8.970;2022-09-09T14:42:56;21.60;90.20
16066;DHT22;8137;48.952;8.970;2022-09-09T14:45:23;21.40;87.70
16066;DHT22;8137;48.952;8.970;2022-09-09T14:47:50;21.40;86.50
16066;DHT22;8137;48.952;8.970;2022-09-09T14:50:16;21.40;86.50
16066;DHT22;8137;48.952;8.970;2022-09-09T14:52:42;21.30;82.40
16066;DHT22;8137;48.952;8.970;2022-09-09T14:55:08;21.20;80.30
16066;DHT22;8137;48.952;8.970;2022-09-09T14:57:33;21.20;79.70
16066;DHT22;8137;48.952;8.970;2022-09-09T15:00:02;21.20;79.30
16066;DHT22;8137;48.952;8.970;2022-09-09T15:02:28;21.30;80.00
16066;DHT22;8137;48.952;8.970;2022-09-09T15:04:55;21.40;81.60
16066;DHT22;8137;48.952;8.970;2022-09-09T15:07:22;21.30;78.60
16066;DHT22;8137;48.952;8.970;2022-09-09T15:09:48;21.40;80.70
16066;DHT22;8137;48.952;8.970;2022-09-09T15:12:15;21.40;79.40
16066;DHT22;8137;48.952;8.970;2022-09-09T15:14:41;21.20;80.00
16066;DHT22;8137;48.952;8.970;2022-09-09T15:17:06;21.20;80.90
16066;DHT22;8137;48.952;8.970;2022-09-09T15:19:32;21.30;82.10
16066;DHT22;8137;48.952;8.970;2022-09-09T15:21:58;21.40;81.30
16066;DHT22;8137;48.952;8.970;2022-09-09T15:24:25;21.40;81.60
16066;DHT22;8137;48.952;8.970;2022-09-09T15:26:52;21.40;81.80
16066;DHT22;8137;48.952;8.970;2022-09-09T15:29:17;21.50;81.70
16066;DHT22;8137;48.952;8.970;2022-09-09T15:31:44;21.60;81.90
16066;DHT22;8137;48.952;8.970;2022-09-09T15:34:09;21.80;83.50
16066;DHT22;8137;48.952;8.970;2022-09-09T15:36:37;21.90;83.50
16066;DHT22;8137;48.952;8.970;2022-09-09T15:39:05;21.80;83.50
16066;DHT22;8137;48.952;8.970;2022-09-09T15:41:31;21.70;83.50
16066;DHT22;8137;48.952;8.970;2022-09-09T15:43:58;21.40;83.60
16066;DHT22;8137;48.952;8.970;2022-09-09T15:46:26;21.20;85.80
16066;DHT22;8137;48.952;8.970;2022-09-09T15:48:57;21.00;85.60
16066;DHT22;8137;48.952;8.970;2022-09-09T15:51:24;20.80;86.90
16066;DHT22;8137;48.952;8.970;2022-09-09T15:53:57;20.60;87.60
16066;DHT22;8137;48.952;8.970;2022-09-09T15:56:24;20.40;90.60
16066;DHT22;8137;48.952;8.970;2022-09-09T15:58:50;20.20;93.10
16066;DHT22;8137;48.952;8.970;2022-09-09T16:01:18;19.20;99.90
16066;DHT22;8137;48.952;8.970;2022-09-09T16:03:45;18.30;99.90
16066;DHT22;8137;48.952;8.970;2022-09-09T16:06:15;18.00;99.90
16066;DHT22;8137;48.952;8.970;2022-09-09T16:08:44;17.70;99.90
16066;DHT22;8137;48.952;8.970;2022-09-09T16:11:13;17.60;99.90
16066;DHT22;8137;48.952;8.970;2022-09-09T16:13:41;17.50;99.90
16066;DHT22;8137;48.952;8.970;2022-09-09T16:16:10;17.20;99.90
16066;DHT22;8137;48.952;8.970;2022-09-09T16:18:41;17.00;99.90
16066;DHT22;8137;48.952;8.970;2022-09-09T16:21:07;16.80;99.90
16066;DHT22;8137;48.952;8.970;2022-09-09T16:23:34;16.50;99.90
16066;DHT22;8137;48.952;8.970;2022-09-09T16:26:01;16.30;99.90
16066;DHT22;8137;48.952;8.970;2022-09-09T16:28:27;16.20;99.90
16066;DHT22;8137;48.952;8.970;2022-09-09T16:30:53;16.10;99.90
16066;DHT22;8137;48.952;8.970;2022-09-09T16:33:19;16.10;99.90
16066;DHT22;8137;48.952;8.970;2022-09-09T16:35:44;16.10;99.90
16066;DHT22;8137;48.952;8.970;2022-09-09T16:38:10;16.00;99.90
16066;DHT22;8137;48.952;8.970;2022-09-09T16:40:37;16.10;99.90
16066;DHT22;8137;48.952;8.970;2022-09-09T16:43:06;16.20;99.90
16066;DHT22;8137;48.952;8.970;2022-09-09T16:45:32;16.20;99.90
16066;DHT22;8137;48.952;8.970;2022-09-09T16:47:59;16.30;99.90
16066;DHT22;8137;48.952;8.970;2022-09-09T16:50:25;16.40;99.90
16066;DHT22;8137;48.952;8.970;2022-09-09T16:52:51;16.60;99.90
16066;DHT22;8137;48.952;8.970;2022-09-09T16:55:17;16.80;99.90
16066;DHT22;8137;48.952;8.970;2022-09-09T16:57:46;16.90;99.90
16066;DHT22;8137;48.952;8.970;2022-09-09T17:00:15;17.10;99.90
16066;DHT22;8137;48.952;8.970;2022-09-09T17:02:42;17.20;99.90
16066;DHT22;8137;48.952;8.970;2022-09-09T17:05:08;17.30;99.90
16066;DHT22;8137;48.952;8.970;2022-09-09T17:07:34;17.30;99.90
16066;DHT22;8137;48.952;8.970;2022-09-09T17:10:01;17.30;99.90
16066;DHT22;8137;48.952;8.970;2022-09-09T17:12:26;17.30;99.90
16066;DHT22;8137;48.952;8.970;2022-09-09T17:14:52;17.10;99.90
16066;DHT22;8137;48.952;8.970;2022-09-09T17:17:18;17.00;99.90
16066;DHT22;8137;48.952;8.970;2022-09-09T17:19:43;16.80;99.90
16066;DHT22;8137;48.952;8.970;2022-09-09T17:22:09;16.70;99.90
16066;DHT22;8137;48.952;8.970;2022-09-09T17:24:35;16.50;99.90
16066;DHT22;8137;48.952;8.970;2022-09-09T17:27:03;16.40;99.90
16066;DHT22;8137;48.952;8.970;2022-09-09T17:29:29;16.20;99.90
16066;DHT22;8137;48.952;8.970;2022-09-09T17:31:54;16.10;99.90
16066;DHT22;8137;48.952;8.970;2022-09-09T17:34:20;16.00;99.90
16066;DHT22;8137;48.952;8.970;2022-09-09T17:36:46;15.90;99.90
16066;DHT22;8137;48.952;8.970;2022-09-09T17:39:12;15.90;99.90
16066;DHT22;8137;48.952;8.970;2022-09-09T17:41:39;15.80;99.90
16066;DHT22;8137;48.952;8.970;2022-09-09T17:44:06;15.80;99.90
16066;DHT22;8137;48.952;8.970;2022-09-09T17:46:42;15.70;99.90
16066;DHT22;8137;48.952;8.970;2022-09-09T17:49:11;15.70;99.90
16066;DHT22;8137;48.952;8.970;2022-09-09T17:51:38;15.70;99.90